sensor_id;sensor_type;location;lat;lon;timestamp;P1;durP1;ratioP1;P2;durP2;ratioP2
19800;SDS011;10060;48.274;12.214;2023-07-09T00:01:25;11.85;;;7.80;;
19800;SDS011;10060;48.274;12.214;2023-07-09T00:04:27;10.88;;;6.97;;
19800;SDS011;10060;48.274;12.214;2023-07-09T00:07:31;11.82;;;7.57;;
19800;SDS011;10060;48.274;12.214;2023-07-09T00:10:34;10.70;;;7.28;;
19800;SDS011;10060;48.274;12.214;2023-07-09T00:13:36;12.15;;;6.88;;
19800;SDS011;10060;48.274;12.214;2023-07-09T00:16:38;13.18;;;8.02;;
19800;SDS011;10060;48.274;12.214;2023-07-09T00:19:41;12.23;;;7.30;;
19800;SDS011;10060;48.274;12.214;2023-07-09T00:22:46;13.60;;;8.13;;
19800;SDS011;10060;48.274;12.214;2023-07-09T00:25:52;15.32;;;7.88;;
19800;SDS011;10060;48.274;12.214;2023-07-09T00:28:54;10.45;;;7.43;;
19800;SDS011;10060;48.274;12.214;2023-07-09T00:31:56;12.93;;;7.60;;
19800;SDS011;10060;48.274;12.214;2023-07-09T00:34:58;13.93;;;8.57;;
19800;SDS011;10060;48.274;12.214;2023-07-09T00:38:07;15.13;;;7.45;;
19800;SDS011;10060;48.274;12.214;2023-07-09T00:41:12;10.07;;;6.88;;
19800;SDS011;10060;48.274;12.214;2023-07-09T00:44:23;14.85;;;7.32;;
19800;SDS011;10060;48.274;12.214;2023-07-09T00:47:31;9.57;;;7.15;;
19800;SDS011;10060;48.274;12.214;2023-07-09T00:50:37;11.80;;;7.45;;
19800;SDS011;10060;48.274;12.214;2023-07-09T00:53:43;12.15;;;7.63;;
19800;SDS011;10060;48.274;12.214;2023-07-09T00:56:46;14.07;;;7.85;;
19800;SDS011;10060;48.274;12.214;2023-07-09T00:59:51;15.25;;;8.73;;
19800;SDS011;10060;48.274;12.214;2023-07-09T01:02:56;12.15;;;7.90;;
19800;SDS011;10060;48.274;12.214;2023-07-09T01:05:59;11.63;;;7.70;;
19800;SDS011;10060;48.274;12.214;2023-07-09T01:09:03;12.60;;;8.10;;
19800;SDS011;10060;48.274;12.214;2023-07-09T01:12:05;14.70;;;7.90;;
19800;SDS011;10060;48.274;12.214;2023-07-09T01:15:09;12.95;;;7.88;;
19800;SDS011;10060;48.274;12.214;2023-07-09T01:18:12;13.07;;;7.88;;
19800;SDS011;10060;48.274;12.214;2023-07-09T01:21:16;15.25;;;7.90;;
19800;SDS011;10060;48.274;12.214;2023-07-09T01:27:37;13.15;;;7.70;;
19800;SDS011;10060;48.274;12.214;2023-07-09T01:30:40;14.48;;;8.35;;
19800;SDS011;10060;48.274;12.214;2023-07-09T01:33:42;13.70;;;8.23;;
19800;SDS011;10060;48.274;12.214;2023-07-09T01:36:46;11.93;;;8.07;;
19800;SDS011;10060;48.274;12.214;2023-07-09T01:39:49;16.63;;;8.07;;
19800;SDS011;10060;48.274;12.214;2023-07-09T01:42:51;16.25;;;7.53;;
19800;SDS011;10060;48.274;12.214;2023-07-09T01:45:53;14.63;;;8.45;;
19800;SDS011;10060;48.274;12.214;2023-07-09T01:48:57;12.35;;;7.28;;
19800;SDS011;10060;48.274;12.214;2023-07-09T01:52:01;12.90;;;7.68;;
19800;SDS011;10060;48.274;12.214;2023-07-09T01:55:04;14.05;;;8.77;;
19800;SDS011;10060;48.274;12.214;2023-07-09T01:58:06;13.35;;;8.55;;
19800;SDS011;10060;48.274;12.214;2023-07-09T02:01:09;11.75;;;7.57;;
19800;SDS011;10060;48.274;12.214;2023-07-09T02:04:11;10.95;;;7.68;;
19800;SDS011;10060;48.274;12.214;2023-07-09T02:07:15;12.45;;;8.10;;
19800;SDS011;10060;48.274;12.214;2023-07-09T02:10:17;13.07;;;7.35;;
19800;SDS011;10060;48.274;12.214;2023-07-09T02:13:19;13.90;;;7.35;;
19800;SDS011;10060;48.274;12.214;2023-07-09T02:16:22;11.38;;;7.50;;
19800;SDS011;10060;48.274;12.214;2023-07-09T02:19:24;12.23;;;7.40;;
19800;SDS011;10060;48.274;12.214;2023-07-09T02:22:27;12.32;;;7.72;;
19800;SDS011;10060;48.274;12.214;2023-07-09T02:25:29;10.38;;;7.47;;
19800;SDS011;10060;48.274;12.214;2023-07-09T02:28:31;13.02;;;7.72;;
19800;SDS011;10060;48.274;12.214;2023-07-09T02:31:33;9.38;;;7.53;;
19800;SDS011;10060;48.274;12.214;2023-07-09T02:34:35;15.23;;;8.35;;
19800;SDS011;10060;48.274;12.214;2023-07-09T02:37:39;11.15;;;8.10;;
19800;SDS011;10060;48.274;12.214;2023-07-09T02:40:41;13.98;;;8.07;;
19800;SDS011;10060;48.274;12.214;2023-07-09T02:43:50;15.93;;;9.15;;
19800;SDS011;10060;48.274;12.214;2023-07-09T02:46:52;15.20;;;8.40;;
19800;SDS011;10060;48.274;12.214;2023-07-09T02:49:54;12.48;;;8.45;;
19800;SDS011;10060;48.274;12.214;2023-07-09T02:52:57;14.18;;;7.28;;
19800;SDS011;10060;48.274;12.214;2023-07-09T02:56:00;12.38;;;7.18;;
19800;SDS011;10060;48.274;12.214;2023-07-09T02:59:02;12.77;;;8.80;;
19800;SDS011;10060;48.274;12.214;2023-07-09T03:02:04;14.73;;;8.68;;
19800;SDS011;10060;48.274;12.214;2023-07-09T03:05:07;13.02;;;8.88;;
19800;SDS011;10060;48.274;12.214;2023-07-09T03:08:12;16.50;;;8.90;;
19800;SDS011;10060;48.274;12.214;2023-07-09T03:11:14;10.35;;;7.68;;
19800;SDS011;10060;48.274;12.214;2023-07-09T03:14:17;11.88;;;7.88;;
19800;SDS011;10060;48.274;12.214;2023-07-09T03:17:19;13.30;;;7.95;;
19800;SDS011;10060;48.274;12.214;2023-07-09T03:20:22;12.93;;;7.25;;
19800;SDS011;10060;48.274;12.214;2023-07-09T03:23:25;13.50;;;8.43;;
19800;SDS011;10060;48.274;12.214;2023-07-09T03:26:27;13.07;;;8.35;;
19800;SDS011;10060;48.274;12.214;2023-07-09T03:29:29;12.02;;;8.60;;
19800;SDS011;10060;48.274;12.214;2023-07-09T03:32:31;11.85;;;8.40;;
19800;SDS011;10060;48.274;12.214;2023-07-09T03:35:33;13.45;;;8.30;;
19800;SDS011;10060;48.274;12.214;2023-07-09T03:38:37;17.05;;;8.52;;
19800;SDS011;10060;48.274;12.214;2023-07-09T03:41:40;11.48;;;7.20;;
19800;SDS011;10060;48.274;12.214;2023-07-09T03:44:42;14.63;;;7.85;;
19800;SDS011;10060;48.274;12.214;2023-07-09T03:47:44;11.18;;;8.18;;
19800;SDS011;10060;48.274;12.214;2023-07-09T03:50:46;14.00;;;8.15;;
19800;SDS011;10060;48.274;12.214;2023-07-09T03:53:59;12.57;;;8.35;;
19800;SDS011;10060;48.274;12.214;2023-07-09T03:57:01;15.85;;;8.32;;
19800;SDS011;10060;48.274;12.214;2023-07-09T04:00:04;12.57;;;8.18;;
19800;SDS011;10060;48.274;12.214;2023-07-09T04:03:10;13.98;;;8.27;;
19800;SDS011;10060;48.274;12.214;2023-07-09T04:06:12;11.32;;;7.88;;
19800;SDS011;10060;48.274;12.214;2023-07-09T04:09:15;12.85;;;8.82;;
19800;SDS011;10060;48.274;12.214;2023-07-09T04:12:17;14.77;;;8.77;;
19800;SDS011;10060;48.274;12.214;2023-07-09T04:15:20;15.05;;;9.40;;
19800;SDS011;10060;48.274;12.214;2023-07-09T04:18:22;11.65;;;8.13;;
19800;SDS011;10060;48.274;12.214;2023-07-09T04:21:24;12.98;;;8.18;;
19800;SDS011;10060;48.274;12.214;2023-07-09T04:24:28;11.93;;;7.80;;
19800;SDS011;10060;48.274;12.214;2023-07-09T04:27:30;18.67;;;8.63;;
19800;SDS011;10060;48.274;12.214;2023-07-09T04:30:32;12.68;;;7.95;;
19800;SDS011;10060;48.274;12.214;2023-07-09T04:33:34;10.75;;;7.70;;
19800;SDS011;10060;48.274;12.214;2023-07-09T04:36:36;10.45;;;7.22;;
19800;SDS011;10060;48.274;12.214;2023-07-09T04:39:40;17.45;;;7.82;;
19800;SDS011;10060;48.274;12.214;2023-07-09T04:42:42;13.80;;;7.53;;
19800;SDS011;10060;48.274;12.214;2023-07-09T04:45:44;16.92;;;8.27;;
19800;SDS011;10060;48.274;12.214;2023-07-09T04:48:46;15.52;;;8.73;;
19800;SDS011;10060;48.274;12.214;2023-07-09T04:51:48;14.68;;;8.80;;
19800;SDS011;10060;48.274;12.214;2023-07-09T04:54:52;14.00;;;9.13;;
19800;SDS011;10060;48.274;12.214;2023-07-09T04:57:54;13.18;;;8.63;;
19800;SDS011;10060;48.274;12.214;2023-07-09T05:00:56;13.80;;;8.43;;
19800;SDS011;10060;48.274;12.214;2023-07-09T05:03:59;15.88;;;8.93;;
19800;SDS011;10060;48.274;12.214;2023-07-09T05:07:01;11.82;;;7.95;;
19800;SDS011;10060;48.274;12.214;2023-07-09T05:10:05;11.88;;;7.75;;
19800;SDS011;10060;48.274;12.214;2023-07-09T05:13:07;12.95;;;8.20;;
19800;SDS011;10060;48.274;12.214;2023-07-09T05:16:09;15.80;;;9.35;;
19800;SDS011;10060;48.274;12.214;2023-07-09T05:19:12;14.90;;;10.02;;
19800;SDS011;10060;48.274;12.214;2023-07-09T05:22:14;12.85;;;8.65;;
19800;SDS011;10060;48.274;12.214;2023-07-09T05:25:17;12.63;;;8.75;;
19800;SDS011;10060;48.274;12.214;2023-07-09T05:28:19;12.93;;;7.72;;
19800;SDS011;10060;48.274;12.214;2023-07-09T05:31:21;14.15;;;8.57;;
19800;SDS011;10060;48.274;12.214;2023-07-09T05:34:24;16.40;;;8.68;;
19800;SDS011;10060;48.274;12.214;2023-07-09T05:37:26;11.63;;;8.10;;
19800;SDS011;10060;48.274;12.214;2023-07-09T05:40:29;13.52;;;8.27;;
19800;SDS011;10060;48.274;12.214;2023-07-09T05:43:31;12.00;;;7.90;;
19800;SDS011;10060;48.274;12.214;2023-07-09T05:46:33;14.02;;;8.07;;
19800;SDS011;10060;48.274;12.214;2023-07-09T05:49:37;11.68;;;7.47;;
19800;SDS011;10060;48.274;12.214;2023-07-09T05:52:39;14.88;;;8.18;;
19800;SDS011;10060;48.274;12.214;2023-07-09T05:55:43;13.30;;;7.22;;
19800;SDS011;10060;48.274;12.214;2023-07-09T05:58:45;13.50;;;7.60;;
19800;SDS011;10060;48.274;12.214;2023-07-09T06:01:47;13.35;;;7.93;;
19800;SDS011;10060;48.274;12.214;2023-07-09T06:04:49;15.73;;;8.20;;
19800;SDS011;10060;48.274;12.214;2023-07-09T06:07:52;13.88;;;7.97;;
19800;SDS011;10060;48.274;12.214;2023-07-09T06:10:56;11.68;;;8.35;;
19800;SDS011;10060;48.274;12.214;2023-07-09T06:13:58;15.40;;;8.57;;
19800;SDS011;10060;48.274;12.214;2023-07-09T06:17:01;11.75;;;7.65;;
19800;SDS011;10060;48.274;12.214;2023-07-09T06:20:03;15.15;;;8.50;;
19800;SDS011;10060;48.274;12.214;2023-07-09T06:23:05;16.42;;;8.93;;
19800;SDS011;10060;48.274;12.214;2023-07-09T06:26:09;14.75;;;8.63;;
19800;SDS011;10060;48.274;12.214;2023-07-09T06:29:11;14.00;;;7.72;;
19800;SDS011;10060;48.274;12.214;2023-07-09T06:32:13;11.65;;;7.47;;
19800;SDS011;10060;48.274;12.214;2023-07-09T06:35:15;11.40;;;7.95;;
19800;SDS011;10060;48.274;12.214;2023-07-09T06:38:17;11.45;;;7.68;;
19800;SDS011;10060;48.274;12.214;2023-07-09T06:41:21;11.88;;;7.88;;
19800;SDS011;10060;48.274;12.214;2023-07-09T06:44:23;14.95;;;6.93;;
19800;SDS011;10060;48.274;12.214;2023-07-09T06:47:26;13.13;;;6.93;;
19800;SDS011;10060;48.274;12.214;2023-07-09T06:50:28;11.95;;;7.22;;
19800;SDS011;10060;48.274;12.214;2023-07-09T06:53:30;11.10;;;7.45;;
19800;SDS011;10060;48.274;12.214;2023-07-09T06:56:34;13.32;;;6.97;;
19800;SDS011;10060;48.274;12.214;2023-07-09T06:59:36;12.75;;;7.45;;
19800;SDS011;10060;48.274;12.214;2023-07-09T07:02:38;9.82;;;6.65;;
19800;SDS011;10060;48.274;12.214;2023-07-09T07:05:42;10.60;;;6.90;;
19800;SDS011;10060;48.274;12.214;2023-07-09T07:08:44;11.98;;;7.32;;
19800;SDS011;10060;48.274;12.214;2023-07-09T07:11:48;10.07;;;6.45;;
19800;SDS011;10060;48.274;12.214;2023-07-09T07:14:50;8.63;;;5.72;;
19800;SDS011;10060;48.274;12.214;2023-07-09T07:17:53;8.82;;;5.95;;
19800;SDS011;10060;48.274;12.214;2023-07-09T07:20:55;9.48;;;5.78;;
19800;SDS011;10060;48.274;12.214;2023-07-09T07:23:57;10.27;;;5.78;;
19800;SDS011;10060;48.274;12.214;2023-07-09T07:27:00;10.82;;;5.60;;
19800;SDS011;10060;48.274;12.214;2023-07-09T07:30:03;10.25;;;5.70;;
19800;SDS011;10060;48.274;12.214;2023-07-09T07:33:05;8.82;;;5.70;;
19800;SDS011;10060;48.274;12.214;2023-07-09T07:36:07;12.32;;;6.00;;
19800;SDS011;10060;48.274;12.214;2023-07-09T07:39:09;10.45;;;5.35;;
19800;SDS011;10060;48.274;12.214;2023-07-09T07:42:13;9.18;;;5.30;;
19800;SDS011;10060;48.274;12.214;2023-07-09T07:45:15;9.30;;;5.82;;
19800;SDS011;10060;48.274;12.214;2023-07-09T07:48:17;7.60;;;5.45;;
19800;SDS011;10060;48.274;12.214;2023-07-09T07:51:19;9.32;;;5.55;;
19800;SDS011;10060;48.274;12.214;2023-07-09T07:54:22;8.27;;;5.32;;
19800;SDS011;10060;48.274;12.214;2023-07-09T07:57:25;6.97;;;5.07;;
19800;SDS011;10060;48.274;12.214;2023-07-09T08:00:27;8.93;;;5.22;;
19800;SDS011;10060;48.274;12.214;2023-07-09T08:03:30;6.57;;;4.88;;
19800;SDS011;10060;48.274;12.214;2023-07-09T08:06:32;7.68;;;5.13;;
19800;SDS011;10060;48.274;12.214;2023-07-09T08:09:34;8.18;;;5.35;;
19800;SDS011;10060;48.274;12.214;2023-07-09T08:12:38;9.13;;;4.97;;
19800;SDS011;10060;48.274;12.214;2023-07-09T08:15:40;9.50;;;5.28;;
19800;SDS011;10060;48.274;12.214;2023-07-09T08:18:42;8.52;;;5.00;;
19800;SDS011;10060;48.274;12.214;2023-07-09T08:21:44;9.00;;;5.38;;
19800;SDS011;10060;48.274;12.214;2023-07-09T08:24:46;8.45;;;4.80;;
19800;SDS011;10060;48.274;12.214;2023-07-09T08:27:50;7.20;;;4.95;;
19800;SDS011;10060;48.274;12.214;2023-07-09T08:30:52;7.82;;;4.68;;
19800;SDS011;10060;48.274;12.214;2023-07-09T08:33:54;8.00;;;5.03;;
19800;SDS011;10060;48.274;12.214;2023-07-09T08:36:56;8.68;;;4.63;;
19800;SDS011;10060;48.274;12.214;2023-07-09T08:39:58;7.28;;;4.78;;
19800;SDS011;10060;48.274;12.214;2023-07-09T08:43:02;11.23;;;5.78;;
19800;SDS011;10060;48.274;12.214;2023-07-09T08:46:10;8.95;;;4.80;;
19800;SDS011;10060;48.274;12.214;2023-07-09T08:49:15;6.28;;;4.80;;
19800;SDS011;10060;48.274;12.214;2023-07-09T08:52:27;7.72;;;4.57;;
19800;SDS011;10060;48.274;12.214;2023-07-09T08:55:30;10.32;;;4.90;;
19800;SDS011;10060;48.274;12.214;2023-07-09T08:58:41;8.95;;;4.40;;
19800;SDS011;10060;48.274;12.214;2023-07-09T09:01:46;8.35;;;5.38;;
19800;SDS011;10060;48.274;12.214;2023-07-09T09:04:49;8.65;;;4.35;;
19800;SDS011;10060;48.274;12.214;2023-07-09T09:07:53;8.55;;;5.05;;
19800;SDS011;10060;48.274;12.214;2023-07-09T09:10:56;7.65;;;5.43;;
19800;SDS011;10060;48.274;12.214;2023-07-09T09:14:03;8.40;;;4.70;;
19800;SDS011;10060;48.274;12.214;2023-07-09T09:17:09;8.85;;;4.43;;
19800;SDS011;10060;48.274;12.214;2023-07-09T09:20:15;7.00;;;4.45;;
19800;SDS011;10060;48.274;12.214;2023-07-09T09:23:18;7.28;;;3.90;;
19800;SDS011;10060;48.274;12.214;2023-07-09T09:26:22;6.35;;;4.40;;
19800;SDS011;10060;48.274;12.214;2023-07-09T09:29:26;6.05;;;4.25;;
19800;SDS011;10060;48.274;12.214;2023-07-09T09:32:30;6.10;;;4.35;;
19800;SDS011;10060;48.274;12.214;2023-07-09T09:35:33;6.40;;;4.07;;
19800;SDS011;10060;48.274;12.214;2023-07-09T09:38:35;8.30;;;4.63;;
19800;SDS011;10060;48.274;12.214;2023-07-09T09:41:37;9.18;;;4.40;;
19800;SDS011;10060;48.274;12.214;2023-07-09T09:44:44;6.10;;;4.28;;
19800;SDS011;10060;48.274;12.214;2023-07-09T09:47:46;6.63;;;4.32;;
19800;SDS011;10060;48.274;12.214;2023-07-09T09:50:50;5.75;;;3.88;;
19800;SDS011;10060;48.274;12.214;2023-07-09T09:53:55;9.85;;;5.05;;
19800;SDS011;10060;48.274;12.214;2023-07-09T09:56:58;6.35;;;3.15;;
19800;SDS011;10060;48.274;12.214;2023-07-09T10:00:02;6.97;;;3.50;;
19800;SDS011;10060;48.274;12.214;2023-07-09T10:03:07;4.85;;;2.75;;
19800;SDS011;10060;48.274;12.214;2023-07-09T10:06:12;3.88;;;2.72;;
19800;SDS011;10060;48.274;12.214;2023-07-09T10:09:19;5.72;;;3.55;;
19800;SDS011;10060;48.274;12.214;2023-07-09T10:12:31;7.80;;;4.03;;
19800;SDS011;10060;48.274;12.214;2023-07-09T10:15:38;4.22;;;3.03;;
19800;SDS011;10060;48.274;12.214;2023-07-09T10:18:44;4.85;;;3.17;;
19800;SDS011;10060;48.274;12.214;2023-07-09T10:21:51;5.97;;;3.78;;
19800;SDS011;10060;48.274;12.214;2023-07-09T10:24:59;7.80;;;3.58;;
19800;SDS011;10060;48.274;12.214;2023-07-09T10:28:08;5.32;;;3.33;;
19800;SDS011;10060;48.274;12.214;2023-07-09T10:31:17;5.68;;;3.38;;
19800;SDS011;10060;48.274;12.214;2023-07-09T10:34:21;8.38;;;3.83;;
19800;SDS011;10060;48.274;12.214;2023-07-09T10:37:33;8.40;;;4.03;;
19800;SDS011;10060;48.274;12.214;2023-07-09T10:40:41;6.72;;;3.53;;
19800;SDS011;10060;48.274;12.214;2023-07-09T10:43:44;8.27;;;4.50;;
19800;SDS011;10060;48.274;12.214;2023-07-09T10:46:49;6.90;;;3.67;;
19800;SDS011;10060;48.274;12.214;2023-07-09T10:49:52;5.95;;;3.42;;
19800;SDS011;10060;48.274;12.214;2023-07-09T10:52:54;4.65;;;3.13;;
19800;SDS011;10060;48.274;12.214;2023-07-09T10:56:01;6.50;;;3.30;;
19800;SDS011;10060;48.274;12.214;2023-07-09T10:59:07;3.83;;;3.05;;
19800;SDS011;10060;48.274;12.214;2023-07-09T11:02:18;5.28;;;3.10;;
19800;SDS011;10060;48.274;12.214;2023-07-09T11:05:21;8.52;;;3.65;;
19800;SDS011;10060;48.274;12.214;2023-07-09T11:08:25;3.58;;;2.83;;
19800;SDS011;10060;48.274;12.214;2023-07-09T11:11:31;5.55;;;3.55;;
19800;SDS011;10060;48.274;12.214;2023-07-09T11:14:36;6.68;;;3.63;;
19800;SDS011;10060;48.274;12.214;2023-07-09T11:17:43;4.40;;;3.17;;
19800;SDS011;10060;48.274;12.214;2023-07-09T11:20:46;7.47;;;3.20;;
19800;SDS011;10060;48.274;12.214;2023-07-09T11:23:49;5.70;;;3.58;;
19800;SDS011;10060;48.274;12.214;2023-07-09T11:26:53;6.85;;;3.42;;
19800;SDS011;10060;48.274;12.214;2023-07-09T11:29:56;9.18;;;7.50;;
19800;SDS011;10060;48.274;12.214;2023-07-09T11:33:01;6.03;;;3.70;;
19800;SDS011;10060;48.274;12.214;2023-07-09T11:36:07;7.65;;;4.15;;
19800;SDS011;10060;48.274;12.214;2023-07-09T11:39:16;5.70;;;3.30;;
19800;SDS011;10060;48.274;12.214;2023-07-09T11:42:23;7.20;;;3.67;;
19800;SDS011;10060;48.274;12.214;2023-07-09T11:45:27;6.38;;;3.00;;
19800;SDS011;10060;48.274;12.214;2023-07-09T11:48:31;6.13;;;3.10;;
19800;SDS011;10060;48.274;12.214;2023-07-09T11:51:37;6.60;;;3.55;;
19800;SDS011;10060;48.274;12.214;2023-07-09T11:54:41;5.53;;;3.53;;
19800;SDS011;10060;48.274;12.214;2023-07-09T11:57:46;4.35;;;3.50;;
19800;SDS011;10060;48.274;12.214;2023-07-09T12:00:50;6.13;;;3.67;;
19800;SDS011;10060;48.274;12.214;2023-07-09T12:03:54;6.05;;;3.13;;
19800;SDS011;10060;48.274;12.214;2023-07-09T12:06:57;7.30;;;4.07;;
19800;SDS011;10060;48.274;12.214;2023-07-09T12:10:02;5.68;;;3.60;;
19800;SDS011;10060;48.274;12.214;2023-07-09T12:13:05;7.47;;;3.90;;
19800;SDS011;10060;48.274;12.214;2023-07-09T12:16:18;6.22;;;3.55;;
19800;SDS011;10060;48.274;12.214;2023-07-09T12:19:22;6.43;;;3.70;;
19800;SDS011;10060;48.274;12.214;2023-07-09T12:22:24;6.07;;;3.42;;
19800;SDS011;10060;48.274;12.214;2023-07-09T12:25:27;7.30;;;3.28;;
19800;SDS011;10060;48.274;12.214;2023-07-09T12:28:31;7.30;;;3.97;;
19800;SDS011;10060;48.274;12.214;2023-07-09T12:31:33;5.57;;;3.13;;
19800;SDS011;10060;48.274;12.214;2023-07-09T12:34:36;5.40;;;3.88;;
19800;SDS011;10060;48.274;12.214;2023-07-09T12:37:38;6.32;;;3.97;;
19800;SDS011;10060;48.274;12.214;2023-07-09T12:40:40;7.47;;;3.67;;
19800;SDS011;10060;48.274;12.214;2023-07-09T12:43:43;5.05;;;3.35;;
19800;SDS011;10060;48.274;12.214;2023-07-09T12:46:46;5.45;;;3.45;;
19800;SDS011;10060;48.274;12.214;2023-07-09T12:49:49;8.38;;;3.78;;
19800;SDS011;10060;48.274;12.214;2023-07-09T12:52:52;8.23;;;3.22;;
19800;SDS011;10060;48.274;12.214;2023-07-09T12:55:58;5.65;;;3.47;;
19800;SDS011;10060;48.274;12.214;2023-07-09T12:59:00;5.68;;;3.17;;
19800;SDS011;10060;48.274;12.214;2023-07-09T13:02:07;6.53;;;3.05;;
19800;SDS011;10060;48.274;12.214;2023-07-09T13:05:18;9.43;;;3.78;;
19800;SDS011;10060;48.274;12.214;2023-07-09T13:08:21;6.38;;;3.58;;
19800;SDS011;10060;48.274;12.214;2023-07-09T13:11:23;4.90;;;3.42;;
19800;SDS011;10060;48.274;12.214;2023-07-09T13:14:26;5.68;;;3.25;;
19800;SDS011;10060;48.274;12.214;2023-07-09T13:17:29;5.63;;;3.25;;
19800;SDS011;10060;48.274;12.214;2023-07-09T13:20:34;6.70;;;3.78;;
19800;SDS011;10060;48.274;12.214;2023-07-09T13:23:36;5.78;;;3.13;;
19800;SDS011;10060;48.274;12.214;2023-07-09T13:26:39;7.90;;;3.50;;
19800;SDS011;10060;48.274;12.214;2023-07-09T13:29:42;5.03;;;3.20;;
19800;SDS011;10060;48.274;12.214;2023-07-09T13:32:44;5.50;;;3.05;;
19800;SDS011;10060;48.274;12.214;2023-07-09T13:35:48;5.55;;;3.38;;
19800;SDS011;10060;48.274;12.214;2023-07-09T13:38:52;6.28;;;3.40;;
19800;SDS011;10060;48.274;12.214;2023-07-09T13:41:55;5.63;;;3.20;;
19800;SDS011;10060;48.274;12.214;2023-07-09T13:44:57;4.93;;;3.28;;
19800;SDS011;10060;48.274;12.214;2023-07-09T13:47:59;5.20;;;3.53;;
19800;SDS011;10060;48.274;12.214;2023-07-09T13:51:05;7.90;;;3.35;;
19800;SDS011;10060;48.274;12.214;2023-07-09T13:54:14;8.27;;;3.25;;
19800;SDS011;10060;48.274;12.214;2023-07-09T13:57:17;6.65;;;3.53;;
19800;SDS011;10060;48.274;12.214;2023-07-09T14:00:19;5.47;;;3.08;;
19800;SDS011;10060;48.274;12.214;2023-07-09T14:03:23;9.55;;;3.58;;
19800;SDS011;10060;48.274;12.214;2023-07-09T14:06:26;4.45;;;3.05;;
19800;SDS011;10060;48.274;12.214;2023-07-09T14:09:28;6.03;;;3.08;;
19800;SDS011;10060;48.274;12.214;2023-07-09T14:12:30;5.35;;;3.20;;
19800;SDS011;10060;48.274;12.214;2023-07-09T14:15:33;6.80;;;2.83;;
19800;SDS011;10060;48.274;12.214;2023-07-09T14:18:35;5.75;;;3.13;;
19800;SDS011;10060;48.274;12.214;2023-07-09T14:21:39;5.30;;;3.08;;
19800;SDS011;10060;48.274;12.214;2023-07-09T14:24:41;9.55;;;3.78;;
19800;SDS011;10060;48.274;12.214;2023-07-09T14:27:43;6.93;;;3.22;;
19800;SDS011;10060;48.274;12.214;2023-07-09T14:30:45;6.80;;;3.22;;
19800;SDS011;10060;48.274;12.214;2023-07-09T14:33:48;6.05;;;3.10;;
19800;SDS011;10060;48.274;12.214;2023-07-09T14:36:52;8.30;;;3.45;;
19800;SDS011;10060;48.274;12.214;2023-07-09T14:39:54;6.22;;;3.20;;
19800;SDS011;10060;48.274;12.214;2023-07-09T14:42:56;6.07;;;3.88;;
19800;SDS011;10060;48.274;12.214;2023-07-09T14:45:59;6.10;;;3.05;;
19800;SDS011;10060;48.274;12.214;2023-07-09T14:49:01;4.40;;;2.72;;
19800;SDS011;10060;48.274;12.214;2023-07-09T14:52:08;7.00;;;2.80;;
19800;SDS011;10060;48.274;12.214;2023-07-09T14:55:18;5.95;;;2.80;;
19800;SDS011;10060;48.274;12.214;2023-07-09T14:58:21;5.40;;;3.35;;
19800;SDS011;10060;48.274;12.214;2023-07-09T15:01:23;7.32;;;3.58;;
19800;SDS011;10060;48.274;12.214;2023-07-09T15:04:27;6.25;;;2.83;;
19800;SDS011;10060;48.274;12.214;2023-07-09T15:07:31;5.90;;;2.72;;
19800;SDS011;10060;48.274;12.214;2023-07-09T15:10:33;5.97;;;2.83;;
19800;SDS011;10060;48.274;12.214;2023-07-09T15:13:35;5.20;;;2.78;;
19800;SDS011;10060;48.274;12.214;2023-07-09T15:16:38;6.75;;;3.40;;
19800;SDS011;10060;48.274;12.214;2023-07-09T15:19:40;10.05;;;2.97;;
19800;SDS011;10060;48.274;12.214;2023-07-09T15:22:44;5.80;;;2.75;;
19800;SDS011;10060;48.274;12.214;2023-07-09T15:25:46;7.63;;;2.78;;
19800;SDS011;10060;48.274;12.214;2023-07-09T15:28:48;6.25;;;2.88;;
19800;SDS011;10060;48.274;12.214;2023-07-09T15:31:50;3.70;;;3.08;;
19800;SDS011;10060;48.274;12.214;2023-07-09T15:34:53;5.40;;;3.00;;
19800;SDS011;10060;48.274;12.214;2023-07-09T15:37:56;4.22;;;2.72;;
19800;SDS011;10060;48.274;12.214;2023-07-09T15:40:58;5.72;;;2.70;;
19800;SDS011;10060;48.274;12.214;2023-07-09T15:44:00;7.20;;;3.05;;
19800;SDS011;10060;48.274;12.214;2023-07-09T15:47:03;4.20;;;2.65;;
19800;SDS011;10060;48.274;12.214;2023-07-09T15:50:12;4.63;;;2.65;;
19800;SDS011;10060;48.274;12.214;2023-07-09T15:53:15;6.97;;;3.30;;
19800;SDS011;10060;48.274;12.214;2023-07-09T15:56:20;6.60;;;2.90;;
19800;SDS011;10060;48.274;12.214;2023-07-09T15:59:26;3.20;;;2.45;;
19800;SDS011;10060;48.274;12.214;2023-07-09T16:02:28;5.47;;;2.80;;
19800;SDS011;10060;48.274;12.214;2023-07-09T16:05:30;5.38;;;3.05;;
19800;SDS011;10060;48.274;12.214;2023-07-09T16:08:34;5.70;;;3.30;;
19800;SDS011;10060;48.274;12.214;2023-07-09T16:11:43;4.38;;;2.95;;
19800;SDS011;10060;48.274;12.214;2023-07-09T16:14:45;5.38;;;3.45;;
19800;SDS011;10060;48.274;12.214;2023-07-09T16:17:47;6.50;;;3.05;;
19800;SDS011;10060;48.274;12.214;2023-07-09T16:20:49;5.18;;;2.92;;
19800;SDS011;10060;48.274;12.214;2023-07-09T16:23:53;5.88;;;2.97;;
19800;SDS011;10060;48.274;12.214;2023-07-09T16:26:56;7.53;;;3.60;;
19800;SDS011;10060;48.274;12.214;2023-07-09T16:29:58;12.10;;;4.00;;
19800;SDS011;10060;48.274;12.214;2023-07-09T16:33:00;9.15;;;3.05;;
19800;SDS011;10060;48.274;12.214;2023-07-09T16:36:02;6.57;;;3.40;;
19800;SDS011;10060;48.274;12.214;2023-07-09T16:39:27;6.53;;;2.70;;
19800;SDS011;10060;48.274;12.214;2023-07-09T16:42:29;5.45;;;2.65;;
19800;SDS011;10060;48.274;12.214;2023-07-09T16:45:31;4.32;;;2.70;;
19800;SDS011;10060;48.274;12.214;2023-07-09T16:48:33;4.88;;;2.85;;
19800;SDS011;10060;48.274;12.214;2023-07-09T16:51:35;4.00;;;2.60;;
19800;SDS011;10060;48.274;12.214;2023-07-09T16:54:39;5.07;;;2.63;;
19800;SDS011;10060;48.274;12.214;2023-07-09T16:57:41;5.22;;;2.90;;
19800;SDS011;10060;48.274;12.214;2023-07-09T17:00:43;4.95;;;2.65;;
19800;SDS011;10060;48.274;12.214;2023-07-09T17:03:45;3.38;;;2.78;;
19800;SDS011;10060;48.274;12.214;2023-07-09T17:06:47;5.63;;;3.03;;
19800;SDS011;10060;48.274;12.214;2023-07-09T17:09:51;6.75;;;3.13;;
19800;SDS011;10060;48.274;12.214;2023-07-09T17:12:54;5.95;;;3.20;;
19800;SDS011;10060;48.274;12.214;2023-07-09T17:15:56;5.38;;;3.13;;
19800;SDS011;10060;48.274;12.214;2023-07-09T17:18:58;4.70;;;2.85;;
19800;SDS011;10060;48.274;12.214;2023-07-09T17:22:00;4.50;;;3.20;;
19800;SDS011;10060;48.274;12.214;2023-07-09T17:25:11;4.97;;;2.92;;
19800;SDS011;10060;48.274;12.214;2023-07-09T17:28:15;5.97;;;3.30;;
19800;SDS011;10060;48.274;12.214;2023-07-09T17:31:17;5.88;;;3.15;;
19800;SDS011;10060;48.274;12.214;2023-07-09T17:34:19;6.65;;;3.45;;
19800;SDS011;10060;48.274;12.214;2023-07-09T17:37:21;7.22;;;3.55;;
19800;SDS011;10060;48.274;12.214;2023-07-09T17:40:25;4.07;;;3.00;;
19800;SDS011;10060;48.274;12.214;2023-07-09T17:43:28;7.95;;;3.15;;
19800;SDS011;10060;48.274;12.214;2023-07-09T17:46:30;7.00;;;3.30;;
19800;SDS011;10060;48.274;12.214;2023-07-09T17:49:32;4.65;;;3.50;;
19800;SDS011;10060;48.274;12.214;2023-07-09T17:52:34;4.70;;;3.08;;
19800;SDS011;10060;48.274;12.214;2023-07-09T17:55:38;5.45;;;3.30;;
19800;SDS011;10060;48.274;12.214;2023-07-09T17:58:40;5.60;;;3.70;;
19800;SDS011;10060;48.274;12.214;2023-07-09T18:01:43;4.93;;;3.13;;
19800;SDS011;10060;48.274;12.214;2023-07-09T18:04:45;4.90;;;3.50;;